createdAt,value
2019-05-22T00:00:13.532Z,0.00
2019-05-22T00:01:13.478Z,0.00
2019-05-22T00:02:13.547Z,0.00
2019-05-22T00:03:13.463Z,0.00
2019-05-22T00:04:13.464Z,0.00
2019-05-22T00:05:13.439Z,0.00
2019-05-22T00:06:13.477Z,0.00
2019-05-22T00:07:13.411Z,0.00
2019-05-22T00:08:13.520Z,0.00
2019-05-22T00:09:13.396Z,0.00
2019-05-22T00:10:13.401Z,0.00
2019-05-22T00:11:13.363Z,0.00
2019-05-22T00:12:13.414Z,0.00
2019-05-22T00:13:13.372Z,0.00
2019-05-22T00:14:14.353Z,0.00
2019-05-22T00:15:13.319Z,0.00
2019-05-22T00:16:14.363Z,0.00
2019-05-22T00:17:13.297Z,0.00
2019-05-22T00:18:14.377Z,0.00
2019-05-22T00:19:13.295Z,0.00
2019-05-22T00:20:14.287Z,0.00
2019-05-22T00:21:13.253Z,0.00
2019-05-22T00:22:13.277Z,0.00
2019-05-22T00:23:13.232Z,0.00
2019-05-22T00:24:13.320Z,0.00
2019-05-22T00:25:13.210Z,0.00
2019-05-22T00:26:13.310Z,0.00
2019-05-22T00:27:13.189Z,0.00
2019-05-22T00:28:13.215Z,0.00
2019-05-22T00:29:13.183Z,0.00
2019-05-22T00:30:13.231Z,0.00
2019-05-22T00:31:13.148Z,0.00
2019-05-22T00:32:13.248Z,0.00
2019-05-22T00:33:13.124Z,0.00
2019-05-22T00:34:13.179Z,0.00
2019-05-22T00:35:13.115Z,0.00
2019-05-22T00:36:13.167Z,0.00
2019-05-22T00:37:13.085Z,0.00
2019-05-22T00:38:13.189Z,0.00
2019-05-22T00:39:13.073Z,0.00
2019-05-22T00:40:13.092Z,0.00
2019-05-22T00:41:13.037Z,0.00
2019-05-22T00:42:13.107Z,0.00
2019-05-22T00:43:14.177Z,0.00
2019-05-22T00:44:13.049Z,0.00
2019-05-22T00:45:12.998Z,0.00
2019-05-22T00:46:13.041Z,0.00
2019-05-22T00:47:12.981Z,0.00
2019-05-22T00:48:13.048Z,0.00
2019-05-22T00:49:13.012Z,0.00
2019-05-22T00:50:13.075Z,0.00
2019-05-22T00:51:12.928Z,0.00
2019-05-22T00:52:12.979Z,0.00
2019-05-22T00:53:12.910Z,0.00
2019-05-22T00:54:13.014Z,0.00
2019-05-22T00:55:12.888Z,0.00
2019-05-22T00:56:12.894Z,0.00
2019-05-22T00:57:12.864Z,0.00
2019-05-22T00:58:12.907Z,0.00
2019-05-22T00:59:12.859Z,0.00
2019-05-22T01:00:13.951Z,0.00
2019-05-22T01:01:12.827Z,0.00
2019-05-22T01:02:12.832Z,0.00
2019-05-22T01:03:12.802Z,0.00
2019-05-22T01:04:15.850Z,0.00
2019-05-22T01:05:12.781Z,0.00
2019-05-22T01:06:14.804Z,0.00
2019-05-22T01:07:12.769Z,0.00
2019-05-22T01:08:12.774Z,0.00
2019-05-22T01:09:12.750Z,0.00
2019-05-22T01:10:12.788Z,0.00
2019-05-22T01:11:12.714Z,0.00
2019-05-22T01:12:12.799Z,0.00
2019-05-22T01:13:12.691Z,0.00
2019-05-22T01:14:12.739Z,0.00
2019-05-22T01:15:12.672Z,0.00
2019-05-22T01:16:12.722Z,0.00
2019-05-22T01:17:12.649Z,0.00
2019-05-22T01:18:12.739Z,0.00
2019-05-22T01:19:12.627Z,0.00
2019-05-22T01:20:12.675Z,0.00
2019-05-22T01:21:12.605Z,0.00
2019-05-22T01:22:12.662Z,0.00
2019-05-22T01:23:12.588Z,0.00
2019-05-22T01:24:12.681Z,0.00
2019-05-22T01:25:12.578Z,0.00
2019-05-22T01:26:12.586Z,0.00
2019-05-22T01:27:12.541Z,0.00
2019-05-22T01:28:12.684Z,0.00
2019-05-22T01:29:12.518Z,0.00
2019-05-22T01:30:12.551Z,0.00
2019-05-22T01:31:12.498Z,0.00
2019-05-22T01:32:12.529Z,0.00
2019-05-22T01:33:12.473Z,0.00
2019-05-22T01:34:12.542Z,0.00
2019-05-22T01:35:12.466Z,0.00
2019-05-22T01:36:12.555Z,0.00
2019-05-22T01:37:12.449Z,0.00
2019-05-22T01:38:12.537Z,0.00
2019-05-22T01:39:12.408Z,0.00
2019-05-22T01:40:12.508Z,0.00
2019-05-22T01:41:12.388Z,0.00
2019-05-22T01:42:12.392Z,0.00
2019-05-22T01:43:12.373Z,0.00
2019-05-22T01:44:12.407Z,0.00
2019-05-22T01:45:12.355Z,0.00
2019-05-22T01:46:12.425Z,0.00
2019-05-22T01:47:12.323Z,0.00
2019-05-22T01:48:12.334Z,0.00
2019-05-22T01:49:12.298Z,0.00
2019-05-22T01:50:12.376Z,0.00
2019-05-22T01:51:12.279Z,0.00
2019-05-22T01:52:12.357Z,0.00
2019-05-22T01:53:12.281Z,0.00
2019-05-22T01:54:12.265Z,0.00
2019-05-22T01:55:12.292Z,0.00
2019-05-22T01:56:12.290Z,0.00
2019-05-22T01:57:12.212Z,0.00
2019-05-22T01:58:12.300Z,0.00
2019-05-22T01:59:12.200Z,0.00
2019-05-22T02:00:12.210Z,0.00
2019-05-22T02:01:12.191Z,0.00
2019-05-22T02:02:12.221Z,0.00
2019-05-22T02:03:12.145Z,0.00
2019-05-22T02:04:14.831Z,0.00
2019-05-22T02:05:12.127Z,0.00
2019-05-22T02:06:12.172Z,0.00
2019-05-22T02:07:12.101Z,0.00
2019-05-22T02:08:12.158Z,0.00
2019-05-22T02:09:12.081Z,0.00
2019-05-22T02:10:12.185Z,0.00
2019-05-22T02:11:12.083Z,0.00
2019-05-22T02:12:12.090Z,0.00
2019-05-22T02:13:12.037Z,0.00
2019-05-22T02:14:12.096Z,0.00
2019-05-22T02:15:12.017Z,0.00
2019-05-22T02:16:12.036Z,0.00
2019-05-22T02:17:11.998Z,0.00
2019-05-22T02:18:12.026Z,0.00
2019-05-22T02:19:11.972Z,0.00
2019-05-22T02:20:12.035Z,0.00
2019-05-22T02:21:11.998Z,0.00
2019-05-22T02:22:12.065Z,0.00
2019-05-22T02:23:11.931Z,0.00
2019-05-22T02:24:11.963Z,0.00
2019-05-22T02:25:12.398Z,0.00
2019-05-22T02:26:12.003Z,0.00
2019-05-22T02:27:11.885Z,0.00
2019-05-22T02:28:11.989Z,0.00
2019-05-22T02:29:11.870Z,0.00
2019-05-22T02:30:11.916Z,0.00
2019-05-22T02:31:11.858Z,0.00
2019-05-22T02:32:34.978Z,0.00
2019-05-22T02:33:11.824Z,0.00
2019-05-22T02:34:11.927Z,0.00
2019-05-22T02:35:11.801Z,0.00
2019-05-22T02:36:11.868Z,0.00
2019-05-22T02:37:11.777Z,0.00
2019-05-22T02:38:13.803Z,0.00
2019-05-22T02:39:11.764Z,0.00
2019-05-22T02:40:11.764Z,0.00
2019-05-22T02:41:14.277Z,0.00
2019-05-22T02:42:11.804Z,0.00
2019-05-22T02:43:11.721Z,0.00
2019-05-22T02:44:11.851Z,0.00
2019-05-22T02:45:11.695Z,0.00
2019-05-22T02:46:11.746Z,0.00
2019-05-22T02:47:19.917Z,0.00
2019-05-22T02:48:12.656Z,0.00
2019-05-22T02:49:11.728Z,0.00
2019-05-22T02:50:11.637Z,0.00
2019-05-22T02:51:11.871Z,0.00
2019-05-22T02:52:11.634Z,0.00
2019-05-22T02:53:11.658Z,0.00
2019-05-22T02:54:11.602Z,0.00
2019-05-22T02:55:11.669Z,4.00
2019-05-22T02:56:11.601Z,4.00
2019-05-22T02:57:11.604Z,4.00
2019-05-22T02:58:11.549Z,4.00
2019-05-22T02:59:11.590Z,4.00
2019-05-22T03:00:11.532Z,0.00
2019-05-22T03:01:11.605Z,0.00
2019-05-22T03:02:11.522Z,4.00
2019-05-22T03:03:11.515Z,4.00
2019-05-22T03:04:11.485Z,0.00
2019-05-22T03:05:11.482Z,4.00
2019-05-22T03:06:11.474Z,4.00
2019-05-22T03:07:11.569Z,4.00
2019-05-22T03:08:11.449Z,4.00
2019-05-22T03:09:11.455Z,8.00
2019-05-22T03:10:11.430Z,8.00
2019-05-22T03:11:11.467Z,4.00
2019-05-22T03:12:11.414Z,8.00
2019-05-22T03:13:11.480Z,8.00
2019-05-22T03:14:11.410Z,8.00
2019-05-22T03:15:11.489Z,12.00
2019-05-22T03:16:11.352Z,12.00
2019-05-22T03:17:11.431Z,12.00
2019-05-22T03:18:11.330Z,12.00
2019-05-22T03:19:11.419Z,12.00
2019-05-22T03:20:11.331Z,16.00
2019-05-22T03:21:11.333Z,20.00
2019-05-22T03:22:11.299Z,20.00
2019-05-22T03:23:11.372Z,20.00
2019-05-22T03:24:11.266Z,24.00
2019-05-22T03:25:11.361Z,28.00
2019-05-22T03:26:11.301Z,28.00
2019-05-22T03:27:11.303Z,28.00
2019-05-22T03:28:11.221Z,28.00
2019-05-22T03:29:11.287Z,36.00
2019-05-22T03:30:11.203Z,40.00
2019-05-22T03:31:11.423Z,40.00
2019-05-22T03:32:11.205Z,40.00
2019-05-22T03:33:11.221Z,48.00
2019-05-22T03:34:11.155Z,56.00
2019-05-22T03:35:11.227Z,56.00
2019-05-22T03:36:11.134Z,76.00
2019-05-22T03:37:11.269Z,72.00
2019-05-22T03:38:11.111Z,72.00
2019-05-22T03:39:11.156Z,76.00
2019-05-22T03:40:11.090Z,88.00
2019-05-22T03:41:11.165Z,88.00
2019-05-22T03:42:11.077Z,84.00
2019-05-22T03:43:11.106Z,92.00
2019-05-22T03:44:11.051Z,104.00
2019-05-22T03:45:11.093Z,108.00
2019-05-22T03:46:11.025Z,104.00
2019-05-22T03:47:11.098Z,112.00
2019-05-22T03:48:11.018Z,116.00
2019-05-22T03:49:28.131Z,116.00
2019-05-22T03:50:11.993Z,140.00
2019-05-22T03:51:11.113Z,128.00
2019-05-22T03:52:10.963Z,124.00
2019-05-22T03:53:11.063Z,132.00
2019-05-22T03:54:10.949Z,128.00
2019-05-22T03:55:10.948Z,128.00
2019-05-22T03:56:10.915Z,136.00
2019-05-22T03:57:10.965Z,144.00
2019-05-22T03:58:10.917Z,160.00
2019-05-22T03:59:10.975Z,172.00
2019-05-22T04:00:10.887Z,188.00
2019-05-22T04:01:10.889Z,200.00
2019-05-22T04:02:10.855Z,248.00
2019-05-22T04:03:16.357Z,284.00
2019-05-22T04:04:10.829Z,340.00
2019-05-22T04:05:11.835Z,356.00
2019-05-22T04:06:10.817Z,376.00
2019-05-22T04:07:10.840Z,376.00
2019-05-22T04:08:10.815Z,380.00
2019-05-22T04:09:10.852Z,348.00
2019-05-22T04:10:10.762Z,332.00
2019-05-22T04:11:11.783Z,344.00
2019-05-22T04:12:10.740Z,320.00
2019-05-22T04:13:10.805Z,296.00
2019-05-22T04:14:10.719Z,292.00
2019-05-22T04:15:10.822Z,296.00
2019-05-22T04:16:10.730Z,300.00
2019-05-22T04:17:10.794Z,312.00
2019-05-22T04:18:11.090Z,312.00
2019-05-22T04:19:10.706Z,324.00
2019-05-22T04:20:10.655Z,336.00
2019-05-22T04:21:10.717Z,348.00
2019-05-22T04:22:10.637Z,344.00
2019-05-22T04:23:10.666Z,344.00
2019-05-22T04:24:10.612Z,344.00
2019-05-22T04:25:10.646Z,328.00
2019-05-22T04:26:10.624Z,352.00
2019-05-22T04:27:10.671Z,332.00
2019-05-22T04:28:10.583Z,352.00
2019-05-22T04:29:10.672Z,368.00
2019-05-22T04:30:10.551Z,376.00
2019-05-22T04:31:10.590Z,392.00
2019-05-22T04:32:10.526Z,388.00
2019-05-22T04:33:10.624Z,384.00
2019-05-22T04:34:10.522Z,356.00
2019-05-22T04:35:10.624Z,344.00
2019-05-22T04:36:10.626Z,336.00
2019-05-22T04:37:10.520Z,332.00
2019-05-22T04:38:10.475Z,336.00
2019-05-22T04:39:10.559Z,348.00
2019-05-22T04:40:10.446Z,372.00
2019-05-22T04:41:10.447Z,372.00
2019-05-22T04:42:10.422Z,360.00
2019-05-22T04:43:10.462Z,348.00
2019-05-22T04:44:10.411Z,344.00
2019-05-22T04:45:10.478Z,356.00
2019-05-22T04:46:10.382Z,364.00
2019-05-22T04:47:10.388Z,384.00
2019-05-22T04:48:10.371Z,404.00
2019-05-22T04:49:11.449Z,436.00
2019-05-22T04:50:10.348Z,504.00
2019-05-22T04:51:11.435Z,520.00
2019-05-22T04:52:10.324Z,492.00
2019-05-22T04:53:10.326Z,504.00
2019-05-22T04:54:10.306Z,492.00
2019-05-22T04:55:10.342Z,492.00
2019-05-22T04:56:10.269Z,496.00
2019-05-22T04:57:10.349Z,504.00
2019-05-22T04:58:10.250Z,500.00
2019-05-22T04:59:10.291Z,496.00
2019-05-22T05:00:10.236Z,504.00
2019-05-22T05:01:10.321Z,516.00
2019-05-22T05:02:10.208Z,544.00
2019-05-22T05:03:10.298Z,532.00
2019-05-22T05:04:10.212Z,656.00
2019-05-22T05:05:10.208Z,636.00
2019-05-22T05:06:10.186Z,812.00
2019-05-22T05:07:10.212Z,804.00
2019-05-22T05:08:10.145Z,800.00
2019-05-22T05:09:10.255Z,856.00
2019-05-22T05:10:10.123Z,1072.00
2019-05-22T05:11:10.148Z,1076.00
2019-05-22T05:12:10.096Z,1516.00
2019-05-22T05:13:10.182Z,1520.00
2019-05-22T05:14:10.487Z,1208.00
2019-05-22T05:15:10.167Z,1012.00
2019-05-22T05:16:10.051Z,996.00
2019-05-22T05:17:10.079Z,1012.00
2019-05-22T05:18:10.028Z,1020.00
2019-05-22T05:19:10.127Z,1032.00
2019-05-22T05:20:21.697Z,1108.00
2019-05-22T05:21:11.013Z,1148.00
2019-05-22T05:22:10.036Z,1068.00
2019-05-22T05:23:09.975Z,1016.00
2019-05-22T05:24:10.051Z,976.00
2019-05-22T05:25:09.957Z,964.00
2019-05-22T05:26:10.041Z,964.00
2019-05-22T05:27:09.932Z,908.00
2019-05-22T05:28:09.944Z,856.00
2019-05-22T05:29:09.925Z,840.00
2019-05-22T05:30:09.979Z,824.00
2019-05-22T05:31:09.893Z,804.00
2019-05-22T05:32:09.977Z,840.00
2019-05-22T05:33:09.867Z,912.00
2019-05-22T05:34:16.896Z,976.00
2019-05-22T05:35:09.857Z,1020.00
2019-05-22T05:36:17.826Z,928.00
2019-05-22T05:37:09.826Z,1136.00
2019-05-22T05:38:09.831Z,1460.00
2019-05-22T05:39:09.801Z,1464.00
2019-05-22T05:40:09.860Z,1452.00
2019-05-22T05:41:09.845Z,1328.00
2019-05-22T05:42:09.838Z,1344.00
2019-05-22T05:43:09.764Z,1312.00
2019-05-22T05:44:09.852Z,1468.00
2019-05-22T05:45:13.226Z,1640.00
2019-05-22T05:46:09.763Z,1704.00
2019-05-22T05:47:09.719Z,1572.00
2019-05-22T05:48:09.777Z,1500.00
2019-05-22T05:49:09.722Z,1552.00
2019-05-22T05:50:09.723Z,1568.00
2019-05-22T05:51:09.671Z,1664.00
2019-05-22T05:52:09.703Z,1632.00
2019-05-22T05:53:09.668Z,1648.00
2019-05-22T05:54:09.716Z,1688.00
2019-05-22T05:55:09.643Z,1676.00
2019-05-22T05:56:09.725Z,1628.00
2019-05-22T05:57:09.606Z,1600.00
2019-05-22T05:58:09.642Z,1636.00
2019-05-22T05:59:09.585Z,1708.00
2019-05-22T06:00:09.684Z,1772.00
2019-05-22T06:01:09.619Z,1788.00
2019-05-22T06:02:09.668Z,1884.00
2019-05-22T06:03:09.542Z,1908.00
2019-05-22T06:04:09.575Z,1816.00
2019-05-22T06:05:09.535Z,1784.00
2019-05-22T06:06:09.591Z,1776.00
2019-05-22T06:07:09.509Z,1868.00
2019-05-22T06:08:09.514Z,1888.00
2019-05-22T06:09:09.477Z,1860.00
2019-05-22T06:10:09.551Z,1812.00
2019-05-22T06:11:09.461Z,1804.00
2019-05-22T06:12:09.528Z,1960.00
2019-05-22T06:13:09.440Z,1860.00
2019-05-22T06:14:09.447Z,1948.00
2019-05-22T06:15:09.427Z,1992.00
2019-05-22T06:16:09.452Z,1812.00
2019-05-22T06:17:09.391Z,1840.00
2019-05-22T06:18:09.466Z,1760.00
2019-05-22T06:19:09.369Z,1700.00
2019-05-22T06:20:11.459Z,1740.00
2019-05-22T06:21:09.347Z,1824.00
2019-05-22T06:22:10.425Z,1940.00
2019-05-22T06:23:09.330Z,1920.00
2019-05-22T06:24:09.415Z,1780.00
2019-05-22T06:25:09.397Z,1640.00
2019-05-22T06:26:09.360Z,1640.00
2019-05-22T06:27:09.285Z,1756.00
2019-05-22T06:28:09.336Z,1848.00
2019-05-22T06:29:09.274Z,1996.00
2019-05-22T06:30:09.351Z,2224.00
2019-05-22T06:31:09.259Z,2160.00
2019-05-22T06:32:09.262Z,2208.00
2019-05-22T06:33:09.220Z,2436.00
2019-05-22T06:34:09.269Z,2312.00
2019-05-22T06:35:09.198Z,2560.00
2019-05-22T06:36:09.314Z,2744.00
2019-05-22T06:37:09.177Z,2748.00
2019-05-22T06:38:09.196Z,2380.00
2019-05-22T06:39:09.158Z,2216.00
2019-05-22T06:40:09.207Z,2200.00
2019-05-22T06:41:09.155Z,2260.00
2019-05-22T06:42:09.225Z,2476.00
2019-05-22T06:43:09.113Z,2584.00
2019-05-22T06:44:09.133Z,2412.00
2019-05-22T06:45:09.093Z,2352.00
2019-05-22T06:46:09.185Z,2276.00
2019-05-22T06:47:09.077Z,2332.00
2019-05-22T06:48:09.164Z,2292.00
2019-05-22T06:49:09.048Z,2232.00
2019-05-22T06:50:09.075Z,2152.00
2019-05-22T06:51:19.177Z,2044.00
2019-05-22T06:52:10.018Z,2028.00
2019-05-22T06:53:10.267Z,2140.00
2019-05-22T06:54:08.994Z,2120.00
2019-05-22T06:55:09.012Z,2072.00
2019-05-22T06:56:08.986Z,2000.00
2019-05-22T06:57:09.020Z,1896.00
2019-05-22T06:58:08.950Z,2004.00
2019-05-22T06:59:09.037Z,2040.00
2019-05-22T07:00:14.266Z,2040.00
2019-05-22T07:01:09.999Z,2064.00
2019-05-22T07:02:08.911Z,2036.00
2019-05-22T07:03:08.958Z,2048.00
2019-05-22T07:04:08.886Z,2068.00
2019-05-22T07:05:08.970Z,2088.00
2019-05-22T07:06:08.882Z,2012.00
2019-05-22T07:07:11.746Z,2104.00
2019-05-22T07:08:08.847Z,2184.00
2019-05-22T07:09:17.910Z,2128.00
2019-05-22T07:10:08.821Z,2152.00
2019-05-22T07:11:08.841Z,2132.00
2019-05-22T07:12:08.802Z,2132.00
2019-05-22T07:13:08.820Z,2112.00
2019-05-22T07:14:08.778Z,2180.00
2019-05-22T07:15:08.834Z,2096.00
2019-05-22T07:16:08.785Z,2108.00
2019-05-22T07:17:08.849Z,2140.00
2019-05-22T07:18:12.422Z,2040.00
2019-05-22T07:19:08.778Z,2028.00
2019-05-22T07:20:08.803Z,2032.00
2019-05-22T07:21:08.772Z,2120.00
2019-05-22T07:22:08.715Z,2060.00
2019-05-22T07:23:08.789Z,2144.00
2019-05-22T07:24:08.676Z,2312.00
2019-05-22T07:25:08.708Z,2236.00
2019-05-22T07:26:08.653Z,2124.00
2019-05-22T07:27:08.746Z,2376.00
2019-05-22T07:28:08.631Z,2184.00
2019-05-22T07:29:08.724Z,2480.00
2019-05-22T07:30:08.614Z,3096.00
2019-05-22T07:31:08.648Z,2832.00
2019-05-22T07:32:08.606Z,3212.00
2019-05-22T07:33:08.662Z,3456.00
2019-05-22T07:34:08.569Z,3432.00
2019-05-22T07:35:08.663Z,3356.00
2019-05-22T07:36:12.190Z,3468.00
2019-05-22T07:37:09.633Z,3780.00
2019-05-22T07:38:08.532Z,3684.00
2019-05-22T07:39:08.589Z,3504.00
2019-05-22T07:40:08.508Z,3344.00
2019-05-22T07:41:08.603Z,3464.00
2019-05-22T07:42:08.496Z,3404.00
2019-05-22T07:43:08.514Z,3388.00
2019-05-22T07:44:08.460Z,3668.00
2019-05-22T07:45:08.527Z,3620.00
2019-05-22T07:46:08.450Z,3692.00
2019-05-22T07:47:08.472Z,3696.00
2019-05-22T07:48:08.448Z,3988.00
2019-05-22T07:49:08.465Z,4076.00
2019-05-22T07:50:08.647Z,4228.00
2019-05-22T07:51:08.477Z,4516.00
2019-05-22T07:52:08.378Z,4592.00
2019-05-22T07:53:23.876Z,4456.00
2019-05-22T07:54:08.356Z,4460.00
2019-05-22T07:55:08.401Z,4728.00
2019-05-22T07:56:08.338Z,4936.00
2019-05-22T07:57:10.360Z,5216.00
2019-05-22T07:58:08.331Z,4988.00
2019-05-22T07:59:08.330Z,4788.00
2019-05-22T08:00:08.289Z,4496.00
2019-05-22T08:01:08.332Z,4296.00
2019-05-22T08:02:08.260Z,4056.00
2019-05-22T08:03:08.377Z,3688.00
2019-05-22T08:04:08.242Z,3468.00
2019-05-22T08:05:08.256Z,3396.00
2019-05-22T08:06:08.245Z,3416.00
2019-05-22T08:07:08.270Z,3412.00
2019-05-22T08:08:08.207Z,3724.00
2019-05-22T08:09:08.190Z,3744.00
2019-05-22T08:10:08.171Z,4132.00
2019-05-22T08:11:08.204Z,5220.00
2019-05-22T08:12:08.150Z,5964.00
2019-05-22T08:13:08.247Z,6312.00
2019-05-22T08:14:08.127Z,6292.00
2019-05-22T08:15:08.222Z,5996.00
2019-05-22T08:16:08.103Z,5724.00
2019-05-22T08:17:08.133Z,5528.00
2019-05-22T08:18:08.094Z,5644.00
2019-05-22T08:19:08.148Z,5360.00
2019-05-22T08:20:08.067Z,4984.00
2019-05-22T08:21:08.058Z,4712.00
2019-05-22T08:22:08.217Z,4408.00
2019-05-22T08:23:08.105Z,4596.00
2019-05-22T08:24:08.035Z,4752.00
2019-05-22T08:25:08.088Z,4556.00
2019-05-22T08:26:07.989Z,4540.00
2019-05-22T08:27:08.003Z,4592.00
2019-05-22T08:28:07.985Z,4652.00
2019-05-22T08:29:08.012Z,4692.00
2019-05-22T08:30:07.945Z,5068.00
2019-05-22T08:31:08.025Z,5400.00
2019-05-22T08:32:07.933Z,5556.00
2019-05-22T08:33:07.976Z,5360.00
2019-05-22T08:34:07.913Z,5336.00
2019-05-22T08:35:07.949Z,5564.00
2019-05-22T08:36:07.893Z,5448.00
2019-05-22T08:37:07.965Z,5088.00
2019-05-22T08:38:07.859Z,5536.00
2019-05-22T08:39:11.388Z,6512.00
2019-05-22T08:40:07.854Z,6636.00
2019-05-22T08:41:23.352Z,6468.00
2019-05-22T08:42:07.817Z,6504.00
2019-05-22T08:43:08.823Z,6168.00
2019-05-22T08:44:17.210Z,5936.00
2019-05-22T08:45:08.779Z,6080.00
2019-05-22T08:46:07.820Z,6288.00
2019-05-22T08:47:07.759Z,6700.00
2019-05-22T08:48:07.835Z,7164.00
2019-05-22T08:49:07.764Z,7064.00
2019-05-22T08:50:07.732Z,6532.00
2019-05-22T08:51:07.724Z,6020.00
2019-05-22T08:52:22.488Z,5836.00
2019-05-22T08:53:08.698Z,5976.00
2019-05-22T08:54:07.806Z,5880.00
2019-05-22T08:55:07.670Z,5504.00
2019-05-22T08:56:07.684Z,5296.00
2019-05-22T08:57:07.654Z,5396.00
2019-05-22T08:58:07.710Z,5512.00
2019-05-22T08:59:19.080Z,5884.00
2019-05-22T09:00:08.630Z,6492.00
2019-05-22T09:01:07.718Z,6748.00
2019-05-22T09:02:07.596Z,7008.00
2019-05-22T09:03:07.629Z,7308.00
2019-05-22T09:04:07.589Z,7424.00
2019-05-22T09:05:07.642Z,7804.00
2019-05-22T09:06:07.560Z,8300.00
2019-05-22T09:07:07.555Z,8440.00
2019-05-22T09:08:07.541Z,8492.00
2019-05-22T09:09:07.599Z,8740.00
2019-05-22T09:10:07.506Z,9208.00
2019-05-22T09:11:07.587Z,9424.00
2019-05-22T09:12:07.486Z,9276.00
2019-05-22T09:13:07.493Z,8936.00
2019-05-22T09:14:07.477Z,8672.00
2019-05-22T09:15:07.507Z,8288.00
2019-05-22T09:16:07.441Z,7928.00
2019-05-22T09:17:07.561Z,7836.00
2019-05-22T09:18:07.422Z,7672.00
2019-05-22T09:19:07.523Z,7664.00
2019-05-22T09:20:07.415Z,7708.00
2019-05-22T09:21:07.446Z,7640.00
2019-05-22T09:22:07.376Z,7784.00
2019-05-22T09:23:08.483Z,8192.00
2019-05-22T09:24:07.379Z,8688.00
2019-05-22T09:25:14.449Z,9228.00
2019-05-22T09:26:07.332Z,9192.00
2019-05-22T09:27:14.860Z,8756.00
2019-05-22T09:28:07.315Z,8592.00
2019-05-22T09:29:07.327Z,8640.00
2019-05-22T09:30:07.289Z,8420.00
2019-05-22T09:31:07.309Z,8276.00
2019-05-22T09:32:07.323Z,8084.00
2019-05-22T09:33:07.323Z,7836.00
2019-05-22T09:34:07.263Z,7760.00
2019-05-22T09:35:07.382Z,7612.00
2019-05-22T09:36:07.223Z,7540.00
2019-05-22T09:37:07.250Z,7580.00
2019-05-22T09:38:07.202Z,7704.00
2019-05-22T09:39:07.292Z,7928.00
2019-05-22T09:40:07.197Z,8240.00
2019-05-22T09:41:07.309Z,8624.00
2019-05-22T09:42:07.162Z,8708.00
2019-05-22T09:43:07.189Z,8648.00
2019-05-22T09:44:07.139Z,8260.00
2019-05-22T09:45:07.236Z,8028.00
2019-05-22T09:46:07.115Z,8316.00
2019-05-22T09:47:07.218Z,9284.00
2019-05-22T09:48:07.091Z,10456.00
2019-05-22T09:49:07.133Z,11152.00
2019-05-22T09:50:07.096Z,11668.00
2019-05-22T09:51:07.140Z,11280.00
2019-05-22T09:52:07.048Z,10216.00
2019-05-22T09:53:07.060Z,9476.00
2019-05-22T09:54:07.029Z,9260.00
2019-05-22T09:55:07.098Z,9344.00
2019-05-22T09:56:07.100Z,9892.00
2019-05-22T09:57:07.086Z,10692.00
2019-05-22T09:58:06.988Z,11684.00
2019-05-22T09:59:06.993Z,12828.00
2019-05-22T10:00:07.095Z,13308.00
2019-05-22T10:01:07.017Z,13384.00
2019-05-22T10:02:06.937Z,12916.00
2019-05-22T10:03:07.027Z,12068.00
2019-05-22T10:04:06.916Z,11444.00
2019-05-22T10:05:06.970Z,10948.00
2019-05-22T10:06:06.995Z,10740.00
2019-05-22T10:07:09.003Z,10228.00
2019-05-22T10:08:06.877Z,9604.00
2019-05-22T10:09:15.878Z,9028.00
2019-05-22T10:10:06.892Z,8692.00
2019-05-22T10:11:06.883Z,8464.00
2019-05-22T10:12:06.828Z,8272.00
2019-05-22T10:13:13.435Z,8372.00
2019-05-22T10:14:06.810Z,8416.00
2019-05-22T10:15:06.975Z,8332.00
2019-05-22T10:16:06.793Z,8204.00
2019-05-22T10:17:06.807Z,7924.00
2019-05-22T10:18:06.761Z,7836.00
2019-05-22T10:19:06.819Z,8316.00
2019-05-22T10:20:06.773Z,9192.00
2019-05-22T10:21:06.836Z,9760.00
2019-05-22T10:22:06.716Z,9672.00
2019-05-22T10:23:15.601Z,9716.00
2019-05-22T10:24:07.692Z,9988.00
2019-05-22T10:25:15.704Z,10108.00
2019-05-22T10:26:07.670Z,10236.00
2019-05-22T10:27:06.771Z,10464.00
2019-05-22T10:28:06.686Z,10576.00
2019-05-22T10:29:06.683Z,10428.00
2019-05-22T10:30:06.643Z,10436.00
2019-05-22T10:31:07.791Z,10768.00
2019-05-22T10:32:06.623Z,10844.00
2019-05-22T10:33:06.614Z,10756.00
2019-05-22T10:34:06.584Z,10752.00
2019-05-22T10:35:06.662Z,10488.00
2019-05-22T10:36:06.641Z,9660.00
2019-05-22T10:37:06.636Z,8820.00
2019-05-22T10:38:06.555Z,8272.00
2019-05-22T10:39:06.549Z,7872.00
2019-05-22T10:40:06.517Z,7844.00
2019-05-22T10:41:06.595Z,8612.00
2019-05-22T10:42:06.499Z,9300.00
2019-05-22T10:43:06.583Z,9572.00
2019-05-22T10:44:06.477Z,9376.00
2019-05-22T10:45:06.502Z,9648.00
2019-05-22T10:46:06.471Z,10372.00
2019-05-22T10:47:06.501Z,11144.00
2019-05-22T10:48:06.434Z,12116.00
2019-05-22T10:49:06.515Z,13172.00
2019-05-22T10:50:06.406Z,14516.00
2019-05-22T10:51:11.896Z,16288.00
2019-05-22T10:52:06.387Z,17952.00
2019-05-22T10:53:08.486Z,19776.00
2019-05-22T10:54:06.361Z,20384.00
2019-05-22T10:55:07.378Z,20096.00
2019-05-22T10:56:06.367Z,17568.00
2019-05-22T10:57:06.366Z,16384.00
2019-05-22T10:58:06.409Z,14972.00
2019-05-22T10:59:22.866Z,13476.00
2019-05-22T11:00:06.300Z,12364.00
2019-05-22T11:01:06.326Z,12216.00
2019-05-22T11:02:06.275Z,12568.00
2019-05-22T11:03:06.309Z,13212.00
2019-05-22T11:04:06.257Z,13808.00
2019-05-22T11:05:06.321Z,14900.00
2019-05-22T11:06:07.961Z,14588.00
2019-05-22T11:07:06.339Z,14940.00
2019-05-22T11:08:06.218Z,15904.00
2019-05-22T11:09:06.251Z,16800.00
2019-05-22T11:10:06.196Z,17184.00
2019-05-22T11:11:06.286Z,18080.00
2019-05-22T11:12:06.173Z,26016.00
2019-05-22T11:13:06.323Z,16736.00
2019-05-22T11:14:09.535Z,14644.00
2019-05-22T11:15:06.189Z,14264.00
2019-05-22T11:16:06.170Z,15136.00
2019-05-22T11:17:06.197Z,16512.00
2019-05-22T11:18:06.102Z,20576.00
2019-05-22T11:19:06.103Z,27296.00
2019-05-22T11:20:06.080Z,39648.00
2019-05-22T11:21:06.154Z,24928.00
2019-05-22T11:22:06.060Z,66368.00
2019-05-22T11:23:06.132Z,21280.00
2019-05-22T11:24:06.033Z,19456.00
2019-05-22T11:25:06.042Z,18144.00
2019-05-22T11:26:06.030Z,16672.00
2019-05-22T11:27:06.059Z,15104.00
2019-05-22T11:28:06.000Z,14056.00
2019-05-22T11:29:06.070Z,14116.00
2019-05-22T11:30:05.969Z,17248.00
2019-05-22T11:31:06.021Z,67360.00
2019-05-22T11:32:05.946Z,86624.00
2019-05-22T11:33:06.007Z,24928.00
2019-05-22T11:34:05.932Z,22016.00
2019-05-22T11:35:06.016Z,21216.00
2019-05-22T11:36:05.921Z,20288.00
2019-05-22T11:37:06.948Z,24256.00
2019-05-22T11:38:05.881Z,21568.00
2019-05-22T11:39:14.945Z,23744.00
2019-05-22T11:40:05.926Z,23360.00
2019-05-22T11:41:05.875Z,21376.00
2019-05-22T11:42:05.846Z,25408.00
2019-05-22T11:43:05.860Z,77792.00
2019-05-22T11:44:05.816Z,29760.00
2019-05-22T11:45:05.873Z,21248.00
2019-05-22T11:46:05.827Z,21984.00
2019-05-22T11:47:06.808Z,47648.00
2019-05-22T11:48:05.774Z,21696.00
2019-05-22T11:49:05.798Z,19424.00
2019-05-22T11:50:05.760Z,18816.00
2019-05-22T11:51:05.845Z,20960.00
2019-05-22T11:52:05.735Z,25184.00
2019-05-22T11:53:05.830Z,24288.00
2019-05-22T11:54:09.181Z,22176.00
2019-05-22T11:55:05.736Z,19776.00
2019-05-22T11:56:05.711Z,19104.00
2019-05-22T11:57:05.750Z,22304.00
2019-05-22T11:58:05.674Z,24256.00
2019-05-22T11:59:05.765Z,86240.00
2019-05-22T12:00:09.041Z,24064.00
2019-05-22T12:01:05.716Z,24672.00
2019-05-22T12:02:05.620Z,23040.00
2019-05-22T12:03:05.701Z,22976.00
2019-05-22T12:04:05.598Z,23488.00
2019-05-22T12:05:05.601Z,28352.00
2019-05-22T12:06:05.591Z,40736.00
2019-05-22T12:07:05.619Z,80672.00
2019-05-22T12:08:05.559Z,79744.00
2019-05-22T12:09:05.628Z,79904.00
2019-05-22T12:10:05.532Z,46336.00
2019-05-22T12:11:05.577Z,79424.00
2019-05-22T12:12:05.510Z,82016.00
2019-05-22T12:13:05.505Z,83072.00
2019-05-22T12:14:05.534Z,79904.00
2019-05-22T12:15:05.572Z,18912.00
2019-05-22T12:16:05.491Z,59520.00
2019-05-22T12:17:05.478Z,28576.00
2019-05-22T12:18:05.451Z,19872.00
2019-05-22T12:19:05.495Z,19616.00
2019-05-22T12:20:05.425Z,44768.00
2019-05-22T12:21:05.536Z,24320.00
2019-05-22T12:22:05.404Z,79776.00
2019-05-22T12:23:12.390Z,27168.00
2019-05-22T12:24:05.382Z,84576.00